Time;durP1;ratioP1;P1;durP2;ratioP2;P2;SDS_P1;SDS_P2;PMS_P1;PMS_P2;Temp;Humidity;BMP_temperature;BMP_pressure;BME280_temperature;BME280_humidity;BME280_pressure;Samples;Min_cycle;Max_cycle;Signal;HPM_P1;HPM_P2
2022/02/03 00:01:23;;;;;;;4.13;3.73;;;11.60;98.50;;;;;;5087708;28;20443;-47
2022/02/03 00:04:02;;;;;;;4.63;4.23;;;11.50;97.00;;;;;;5104302;28;20421;-47
2022/02/03 00:06:44;;;;;;;4.73;4.33;;;11.30;96.10;;;;;;5111675;28;20433;-47
2022/02/03 00:25:21;;;;;;;5.20;4.70;;;9.70;97.10;;;;;;5120789;28;20433;-46
2022/02/03 00:27:58;;;;;;;5.70;5.10;;;9.60;97.10;;;;;;5103008;28;20429;-46
2022/02/03 00:30:35;;;;;;;6.30;5.80;;;9.50;97.20;;;;;;5121503;28;20400;-46
2022/02/03 00:33:18;;;;;;;5.43;4.93;;;9.50;97.40;;;;;;5117595;28;20436;-46
2022/02/03 00:49:13;;;;;;;4.70;4.30;;;9.20;97.90;;;;;;5108829;28;20519;-46
2022/02/03 00:51:51;;;;;;;5.40;4.90;;;9.10;98.00;;;;;;5117322;28;20765;-46
2022/02/03 00:54:20;;;;;;;5.60;5.10;;;9.10;98.00;;;;;;5118683;28;20444;-46
2022/02/03 00:56:54;;;;;;;4.83;4.43;;;9.10;98.10;;;;;;5116524;28;20516;-46
2022/02/03 00:59:40;;;;;;;5.83;5.33;;;9.10;98.20;;;;;;5113308;28;20851;-47
2022/02/03 01:02:12;;;;;;;4.80;4.40;;;9.00;98.20;;;;;;5114643;28;20482;-47
2022/02/03 01:04:40;;;;;;;5.67;5.20;;;9.10;98.20;;;;;;5096131;28;20499;-47
2022/02/03 01:07:16;;;;;;;5.57;5.07;;;9.00;98.20;;;;;;5118731;28;20771;-47
2022/02/03 01:09:53;;;;;;;5.50;5.00;;;9.00;98.30;;;;;;5116317;28;20537;-47
2022/02/03 01:12:41;;;;;;;5.03;4.63;;;9.00;98.30;;;;;;5118738;28;21469;-46
2022/02/03 01:15:18;;;;;;;5.30;4.80;;;9.00;98.30;;;;;;5116763;28;20431;-47
2022/02/03 01:18:05;;;;;;;5.20;4.70;;;8.90;98.30;;;;;;5118267;28;20417;-47
2022/02/03 01:21:06;;;;;;;5.43;4.40;;;8.90;98.40;;;;;;5116858;28;20426;-47
2022/02/03 01:34:48;;;;;;;4.57;4.17;;;8.80;98.60;;;;;;5115922;28;20561;-47
2022/02/03 01:37:34;;;;;;;5.13;4.70;;;8.80;98.70;;;;;;5117805;28;20398;-47
2022/02/03 01:53:33;;;;;;;4.50;4.10;;;8.70;99.00;;;;;;5121171;28;20470;-46
2022/02/03 01:56:19;;;;;;;4.77;4.37;;;8.70;98.80;;;;;;5120392;28;20455;-46
2022/02/03 01:58:49;;;;;;;5.00;4.60;;;8.70;98.80;;;;;;5122151;28;20822;-47
2022/02/03 02:01:29;;;;;;;5.40;4.90;;;8.70;98.80;;;;;;5119931;28;20430;-46
2022/02/03 02:04:10;;;;;;;5.40;4.90;;;8.70;98.90;;;;;;5121369;28;20709;-47
2022/02/03 02:06:52;;;;;;;5.57;5.07;;;8.60;98.90;;;;;;5121311;28;20734;-47
2022/02/03 02:09:45;;;;;;;5.07;4.63;;;8.60;98.90;;;;;;5119003;28;20815;-46
2022/02/03 02:12:48;;;;;;;5.17;4.67;;;8.60;99.00;;;;;;5104302;28;20468;-47
2022/02/03 02:18:20;;;;;;;5.23;4.80;;;8.60;99.00;;;;;;5119469;28;20463;-46
2022/02/03 02:42:46;;;;;;;4.30;4.00;;;8.50;98.90;;;;;;5112998;28;20988;-46
2022/02/03 02:45:15;;;;;;;4.07;3.77;;;8.50;98.90;;;;;;5118660;28;20443;-47
2022/02/03 02:48:04;;;;;;;4.13;3.83;;;8.50;98.90;;;;;;5102558;28;20566;-47
2022/02/03 02:50:50;;;;;;;3.83;3.53;;;8.50;99.00;;;;;;5119191;28;20814;-47
2022/02/03 02:53:30;;;;;;;4.80;4.30;;;8.50;99.00;;;;;;5086050;28;20800;-47
2022/02/03 03:29:18;;;;;;;6.13;5.53;;;8.40;99.30;;;;;;5098814;28;20564;-47
2022/02/03 03:36:56;;;;;;;6.10;5.60;;;8.30;99.50;;;;;;5097705;28;20522;-47
2022/02/03 03:39:34;;;;;;;5.87;5.30;;;8.30;99.50;;;;;;5114646;28;20849;-47
2022/02/03 03:42:02;;;;;;;5.50;5.00;;;8.30;99.50;;;;;;5097177;28;20936;-47
2022/02/03 03:44:29;;;;;;;5.83;5.33;;;8.30;99.50;;;;;;5098863;28;20426;-47
2022/02/03 03:47:00;;;;;;;6.60;6.00;;;8.30;99.60;;;;;;5097437;28;20454;-47
2022/02/03 03:49:42;;;;;;;6.73;6.13;;;8.30;99.50;;;;;;5098673;28;20803;-47
2022/02/03 03:52:15;;;;;;;6.57;5.97;;;8.30;99.60;;;;;;5097023;28;20417;-46
2022/02/03 03:55:00;;;;;;;6.43;5.83;;;8.30;99.60;;;;;;5098899;28;20418;-46
2022/02/03 03:57:45;;;;;;;6.83;6.17;;;8.30;99.60;;;;;;5111411;28;20441;-46
2022/02/03 04:30:07;;;;;;;6.00;5.40;;;8.10;99.60;;;;;;5110393;28;20487;-47
2022/02/03 05:03:35;;;;;;;8.33;6.37;;;7.90;99.80;;;;;;5096093;28;20460;-48
2022/02/03 05:09:43;;;;;;;6.83;6.27;;;7.90;99.80;;;;;;5110032;28;20507;-42
2022/02/03 05:12:42;;;;;;;6.60;6.00;;;7.90;99.80;;;;;;5094791;28;20491;-44
2022/02/03 05:15:54;;;;;;;7.30;6.60;;;7.90;99.70;;;;;;5095400;28;20425;-42
2022/02/03 05:25:32;;;;;;;6.00;5.50;;;7.90;99.60;;;;;;5063186;28;20414;-40
2022/02/03 05:43:55;;;;;;;6.57;5.97;;;7.90;99.50;;;;;;5099168;28;20759;-41
2022/02/03 05:49:04;;;;;;;6.30;5.70;;;7.90;99.40;;;;;;5099398;28;20535;-42
2022/02/03 05:51:48;;;;;;;6.43;5.83;;;7.80;99.40;;;;;;5097894;28;20794;-43
2022/02/03 06:08:16;;;;;;;5.23;4.73;;;7.80;99.50;;;;;;5069019;28;20433;-41
2022/02/03 06:16:19;;;;;;;6.60;6.00;;;7.80;99.50;;;;;;5101581;28;21082;-43
2022/02/03 06:24:06;;;;;;;6.23;5.50;;;7.80;99.80;;;;;;5117167;28;20457;-43
2022/02/03 06:29:21;;;;;;;6.00;5.50;;;7.80;99.90;;;;;;5114699;28;20570;-42
2022/02/03 06:31:49;;;;;;;7.03;6.33;;;7.80;99.90;;;;;;5116633;27;20713;-42
2022/02/03 06:34:17;;;;;;;6.90;6.30;;;7.80;99.90;;;;;;5115921;28;20430;-42
2022/02/03 06:36:43;;;;;;;7.40;6.70;;;7.80;99.90;;;;;;5117168;28;20421;-41
2022/02/03 06:39:21;;;;;;;7.93;7.13;;;7.80;99.90;;;;;;5114254;28;20722;-42
2022/02/03 06:41:53;;;;;;;8.20;7.40;;;7.80;99.90;;;;;;5111600;28;20233;-41
2022/02/03 06:44:22;;;;;;;7.57;6.90;;;7.80;99.90;;;;;;5097112;28;20892;-42
2022/02/03 06:46:51;;;;;;;7.47;6.87;;;7.80;99.90;;;;;;5111216;28;20482;-42
2022/02/03 06:49:49;;;;;;;7.03;6.40;;;7.80;99.90;;;;;;5104379;28;20474;-42
2022/02/03 06:52:10;;;;;;;7.60;6.90;;;7.80;99.90;;;;;;5093958;28;20798;-43
2022/02/03 06:54:39;;;;;;;7.77;7.07;;;7.90;99.90;;;;;;5109131;28;20425;-41
2022/02/03 06:57:11;;;;;;;6.87;6.30;;;7.90;99.90;;;;;;5101554;28;20416;-41
2022/02/03 06:59:46;;;;;;;7.80;7.20;;;7.90;99.90;;;;;;5114420;28;20779;-41
2022/02/03 07:02:12;;;;;;;7.80;7.03;;;7.90;99.90;;;;;;5115100;28;20457;-41
2022/02/03 07:04:43;;;;;;;7.73;7.03;;;7.90;99.90;;;;;;5115457;28;20429;-41
2022/02/03 07:07:09;;;;;;;7.57;6.87;;;7.90;99.90;;;;;;5116335;28;20180;-42
2022/02/03 07:09:34;;;;;;;7.73;6.67;;;8.00;99.90;;;;;;5114892;28;20504;-42
2022/02/03 07:12:03;;;;;;;7.83;7.10;;;8.00;99.90;;;;;;5115644;28;20752;-42
2022/02/03 07:14:31;;;;;;;7.30;6.60;;;8.00;99.90;;;;;;5114836;28;20184;-43
2022/02/03 07:16:59;;;;;;;7.80;7.10;;;8.00;99.90;;;;;;5119130;28;20414;-41
2022/02/03 07:19:25;;;;;;;6.93;6.33;;;8.10;99.90;;;;;;5117730;28;20514;-41
2022/02/03 07:21:50;;;;;;;8.10;7.40;;;8.10;99.90;;;;;;5118984;28;20567;-41
2022/02/03 07:24:16;;;;;;;6.63;6.03;;;8.10;99.90;;;;;;5116982;28;20494;-42
2022/02/03 07:26:41;;;;;;;7.20;6.50;;;8.20;99.90;;;;;;5117583;28;20574;-43
2022/02/03 07:29:07;;;;;;;7.00;5.90;;;8.20;99.90;;;;;;5117227;28;20497;-41
2022/02/03 07:31:33;;;;;;;7.70;7.00;;;8.20;99.90;;;;;;5118906;28;20167;-41
2022/02/03 07:34:09;;;;;;;6.67;6.17;;;8.30;99.90;;;;;;5116973;28;20183;-42
2022/02/03 07:36:36;;;;;;;5.77;5.27;;;8.30;99.90;;;;;;5117931;28;20165;-41
2022/02/03 07:39:02;;;;;;;6.13;5.53;;;8.40;99.90;;;;;;5116806;28;20435;-41
2022/02/03 07:41:29;;;;;;;6.33;5.63;;;8.40;99.90;;;;;;5116625;28;20417;-41
2022/02/03 07:43:55;;;;;;;5.83;5.33;;;8.50;99.90;;;;;;5080151;28;20447;-42
2022/02/03 07:46:20;;;;;;;6.07;5.57;;;8.50;99.80;;;;;;5115467;28;20833;-41
2022/02/03 07:48:49;;;;;;;6.07;5.57;;;8.60;99.70;;;;;;5113621;28;20211;-40
2022/02/03 07:51:15;;;;;;;5.50;5.00;;;8.60;99.60;;;;;;5116311;28;20189;-41
2022/02/03 07:53:41;;;;;;;5.77;5.17;;;8.60;99.60;;;;;;5115051;28;20450;-41
2022/02/03 07:56:07;;;;;;;6.90;5.10;;;8.70;99.50;;;;;;5113359;28;20425;-41
2022/02/03 07:58:33;;;;;;;5.30;4.80;;;8.70;99.40;;;;;;5113028;28;20512;-41
2022/02/03 08:00:59;;;;;;;5.07;4.63;;;8.70;99.40;;;;;;5116560;28;20527;-41
2022/02/03 08:03:25;;;;;;;5.70;4.37;;;8.70;99.30;;;;;;5115599;28;20172;-41
2022/02/03 08:05:57;;;;;;;5.57;5.07;;;8.70;99.50;;;;;;5114952;28;20490;-41
2022/02/03 08:08:28;;;;;;;5.17;4.70;;;8.70;99.20;;;;;;5116998;28;20236;-42
2022/02/03 08:11:02;;;;;;;5.27;4.80;;;8.80;99.20;;;;;;5113742;28;20485;-41
2022/02/03 08:13:33;;;;;;;4.83;4.43;;;8.80;99.20;;;;;;5102612;28;21351;-41
2022/02/03 08:16:13;;;;;;;5.27;4.77;;;8.80;99.20;;;;;;5108551;28;20426;-40
2022/02/03 08:18:42;;;;;;;3.20;1.70;;;8.90;99.20;;;;;;5095557;28;20418;-41
2022/02/03 08:21:10;;;;;;;2.30;1.50;;;9.20;99.90;;;;;;5094531;28;20426;-41
2022/02/03 08:26:14;;;;;;;2.53;1.60;;;10.80;99.90;;;;;;5093348;28;20431;-43
2022/02/03 08:31:27;;;;;;;2.30;2.10;;;12.40;99.90;;;;;;5103251;28;20559;-42
2022/02/03 08:33:55;;;;;;;3.83;2.00;;;13.10;99.80;;;;;;5114540;28;20820;-42
2022/02/03 08:36:22;;;;;;;3.60;1.47;;;13.70;98.20;;;;;;5112399;28;20857;-42
2022/02/03 08:38:56;;;;;;;2.27;1.50;;;14.20;96.50;;;;;;5114990;28;20744;-40
2022/02/03 08:41:25;;;;;;;2.77;1.40;;;14.60;95.40;;;;;;5114288;28;20974;-41
2022/02/03 08:43:50;;;;;;;2.20;1.97;;;15.00;94.00;;;;;;5112784;28;20929;-41
2022/02/03 08:46:16;;;;;;;3.00;1.90;;;15.20;92.90;;;;;;5112748;28;20465;-42
2022/02/03 08:48:42;;;;;;;2.70;2.50;;;15.20;91.30;;;;;;5115004;28;20200;-40
2022/02/03 08:51:09;;;;;;;2.80;2.60;;;15.00;90.20;;;;;;5096606;28;20179;-41
2022/02/03 08:53:40;;;;;;;2.40;2.20;;;14.70;89.10;;;;;;5115739;28;20419;-42
2022/02/03 09:37:50;;;;;;;2.83;2.60;;;13.10;86.50;;;;;;5118543;28;20439;-42
2022/02/03 09:39:59;;;;;;;2.47;2.27;;;13.10;86.10;;;;;;5104096;28;20451;-42
2022/02/03 09:56:09;;;;;;;1.83;1.60;;;14.50;84.60;;;;;;5120816;28;20438;-45
2022/02/03 09:58:41;;;;;;;1.63;1.30;;;14.90;86.80;;;;;;5117144;28;21114;-42
2022/02/03 10:01:13;;;;;;;1.60;1.40;;;15.40;87.90;;;;;;5101460;28;20422;-42
2022/02/03 10:06:21;;;;;;;2.00;1.90;;;16.00;84.70;;;;;;5119190;28;20403;-42
2022/02/03 10:08:49;;;;;;;1.73;1.30;;;16.00;81.60;;;;;;5118062;28;20470;-41
2022/02/03 10:11:24;;;;;;;2.60;1.70;;;16.00;79.50;;;;;;5120129;28;20469;-41
2022/02/03 10:13:55;;;;;;;2.03;1.67;;;16.00;77.90;;;;;;5116309;28;20535;-41
2022/02/03 10:16:26;;;;;;;3.43;1.90;;;16.00;79.80;;;;;;5118387;28;20489;-42
2022/02/03 10:19:12;;;;;;;2.20;1.60;;;16.60;81.90;;;;;;5117865;28;20434;-43
2022/02/03 10:21:39;;;;;;;1.50;1.13;;;17.10;79.20;;;;;;5117199;28;20410;-43
2022/02/03 10:24:07;;;;;;;2.20;1.77;;;17.40;77.90;;;;;;5100725;28;20511;-43
2022/02/03 10:26:46;;;;;;;1.67;1.47;;;17.80;76.30;;;;;;5115927;28;20423;-44
2022/02/03 10:29:21;;;;;;;5.67;1.80;;;18.00;74.30;;;;;;5118844;28;20793;-42
2022/02/03 10:31:47;;;;;;;2.93;2.00;;;18.40;72.60;;;;;;5099883;28;20420;-43
2022/02/03 10:34:20;;;;;;;1.70;1.53;;;18.90;71.00;;;;;;5100701;28;20429;-42
2022/02/03 10:40:08;;;;;;;1.97;1.63;;;20.00;67.50;;;;;;5116816;28;20437;-43
2022/02/03 10:45:33;;;;;;;1.90;1.70;;;20.50;61.80;;;;;;5115816;28;20456;-44
2022/02/03 10:58:51;;;;;;;1.90;1.70;;;20.60;58.40;;;;;;5099909;28;20834;-43
2022/02/03 11:09:23;;;;;;;1.97;1.73;;;20.10;57.20;;;;;;5116088;28;20561;-44
2022/02/03 11:11:55;;;;;;;2.27;1.87;;;19.80;57.20;;;;;;5083379;28;20899;-41
2022/02/03 11:14:22;;;;;;;2.30;1.50;;;19.60;57.50;;;;;;5077499;28;20442;-42
2022/02/03 11:16:48;;;;;;;1.80;1.47;;;19.30;58.00;;;;;;5097713;28;20521;-42
2022/02/03 11:19:16;;;;;;;1.83;1.50;;;19.20;58.50;;;;;;5095715;28;20785;-44
2022/02/03 11:21:47;;;;;;;1.40;1.30;;;19.00;58.90;;;;;;5079273;28;20476;-42
2022/02/03 11:24:25;;;;;;;1.27;1.10;;;18.90;58.80;;;;;;5077496;28;20518;-42
2022/02/03 11:31:14;;;;;;;1.90;1.67;;;18.70;58.90;;;;;;5058565;28;20494;-43
2022/02/03 11:44:21;;;;;;;2.40;2.20;;;17.40;59.30;;;;;;5094538;28;20455;-42
2022/02/03 11:55:23;;;;;;;2.50;1.80;;;17.00;61.20;;;;;;5071482;28;20462;-44
2022/02/03 12:12:51;;;;;;;1.97;1.77;;;17.40;60.80;;;;;;5074692;28;20466;-42
2022/02/03 12:15:47;;;;;;;1.80;1.57;;;17.40;60.70;;;;;;5090833;28;20437;-43
2022/02/03 12:19:08;;;;;;;3.73;1.90;;;17.50;60.70;;;;;;5090942;28;20554;-42
2022/02/03 12:21:52;;;;;;;2.17;1.97;;;17.40;60.30;;;;;;5093634;28;20426;-43
2022/02/03 12:24:45;;;;;;;1.77;1.67;;;17.40;60.20;;;;;;5096029;28;20703;-43
2022/02/03 12:27:27;;;;;;;2.20;1.53;;;17.40;60.70;;;;;;5092949;28;20422;-44
2022/02/03 12:30:00;;;;;;;2.20;1.70;;;17.50;60.80;;;;;;5093707;28;20464;-42
2022/02/03 12:43:12;;;;;;;2.43;2.23;;;17.60;60.00;;;;;;5094214;28;20432;-44
2022/02/03 12:45:38;;;;;;;2.43;2.03;;;17.50;59.80;;;;;;5089951;28;20409;-42
2022/02/03 12:48:05;;;;;;;2.83;1.73;;;17.40;59.90;;;;;;5093371;28;20453;-43
2022/02/03 12:50:36;;;;;;;2.77;2.03;;;17.40;60.10;;;;;;5093325;28;20416;-43
2022/02/03 12:53:04;;;;;;;3.10;2.00;;;17.40;60.50;;;;;;5094337;28;20437;-46
2022/02/03 12:55:40;;;;;;;2.17;1.80;;;17.30;60.70;;;;;;5092276;28;20677;-42
2022/02/03 12:58:13;;;;;;;2.77;1.77;;;17.20;61.00;;;;;;5094942;28;20688;-42
2022/02/03 13:00:48;;;;;;;1.70;1.50;;;17.10;61.20;;;;;;5092482;28;20407;-42
2022/02/03 13:03:16;;;;;;;2.23;1.97;;;17.10;61.40;;;;;;5094837;28;20557;-45
2022/02/03 13:05:55;;;;;;;3.03;2.20;;;17.00;61.80;;;;;;5091533;28;20407;-44
2022/02/03 13:08:35;;;;;;;2.23;2.03;;;16.90;61.70;;;;;;5093829;28;20458;-43
2022/02/03 13:11:20;;;;;;;2.20;1.93;;;16.70;61.80;;;;;;5089111;28;20561;-42
2022/02/03 13:14:02;;;;;;;2.63;2.43;;;16.60;62.50;;;;;;5094293;28;20407;-43
2022/02/03 13:16:28;;;;;;;2.57;2.00;;;16.40;62.90;;;;;;5091441;28;20414;-43
2022/02/03 13:19:19;;;;;;;2.83;2.37;;;16.30;63.20;;;;;;5092685;28;20522;-43
2022/02/03 13:26:43;;;;;;;2.67;2.47;;;15.80;64.80;;;;;;5095289;28;20215;-45
2022/02/03 13:29:15;;;;;;;2.70;2.30;;;15.70;66.20;;;;;;5092089;28;20545;-43
2022/02/03 13:31:53;;;;;;;2.20;2.00;;;15.70;65.80;;;;;;5095147;28;20491;-46
2022/02/03 13:36:58;;;;;;;1.70;1.50;;;15.80;66.10;;;;;;5095064;28;20421;-41
2022/02/03 13:39:29;;;;;;;2.60;2.30;;;15.90;66.30;;;;;;5091644;28;20530;-42
2022/02/03 13:42:06;;;;;;;2.30;2.10;;;16.00;66.50;;;;;;5094019;28;20417;-41
2022/02/03 13:44:32;;;;;;;2.70;2.50;;;16.10;67.20;;;;;;5092505;28;20432;-42
2022/02/03 13:46:59;;;;;;;2.30;2.10;;;16.10;66.30;;;;;;5095042;28;20746;-44
2022/02/03 13:49:28;;;;;;;2.10;1.90;;;16.10;66.20;;;;;;5095215;28;20754;-43
2022/02/03 13:51:59;;;;;;;2.60;2.20;;;16.10;66.00;;;;;;5095736;28;20807;-42
2022/02/03 14:18:47;;;;;;;2.10;1.90;;;16.00;65.90;;;;;;5117179;28;20438;-44
2022/02/03 14:21:25;;;;;;;2.93;1.90;;;15.90;66.20;;;;;;5109587;28;20416;-43
2022/02/03 14:29:26;;;;;;;2.30;2.10;;;15.50;67.30;;;;;;5107584;28;20549;-42
2022/02/03 14:32:00;;;;;;;2.27;1.90;;;15.30;67.80;;;;;;5115914;28;20440;-44
2022/02/03 14:34:31;;;;;;;2.80;2.10;;;15.20;68.40;;;;;;5097796;28;20438;-43
2022/02/03 14:37:14;;;;;;;2.20;1.67;;;15.00;69.00;;;;;;5116973;28;20437;-43
2022/02/03 14:42:11;;;;;;;2.00;1.80;;;14.70;70.00;;;;;;5118558;28;20435;-43
2022/02/03 14:44:46;;;;;;;2.30;2.10;;;14.60;70.50;;;;;;5115655;28;20447;-44
2022/02/03 14:47:12;;;;;;;2.30;2.10;;;14.50;71.00;;;;;;5098155;28;20219;-43
2022/02/03 14:49:41;;;;;;;2.33;2.13;;;14.40;71.40;;;;;;5113724;28;20470;-44
2022/02/03 15:00:24;;;;;;;2.20;1.70;;;13.90;73.20;;;;;;5113469;28;20524;-43
2022/02/03 15:02:50;;;;;;;1.83;1.70;;;13.70;73.70;;;;;;5114036;28;20462;-43
2022/02/03 15:05:24;;;;;;;2.60;2.30;;;13.70;74.20;;;;;;5115149;28;20455;-43
2022/02/03 15:07:56;;;;;;;2.57;2.13;;;13.60;74.70;;;;;;5115658;28;20431;-44
2022/02/03 15:10:41;;;;;;;2.20;2.00;;;13.50;75.10;;;;;;5114705;28;20559;-44
2022/02/03 15:15:51;;;;;;;2.70;2.50;;;13.30;76.20;;;;;;5102323;28;20428;-43
2022/02/03 15:18:17;;;;;;;2.40;2.20;;;13.20;76.60;;;;;;5114724;28;20414;-43
2022/02/03 15:20:44;;;;;;;2.63;1.80;;;13.10;77.10;;;;;;5115962;28;20592;-43
2022/02/03 15:23:09;;;;;;;3.10;2.37;;;13.10;77.50;;;;;;5113246;28;20485;-46
2022/02/03 15:25:35;;;;;;;2.77;2.57;;;13.00;77.90;;;;;;5115151;28;20467;-45
2022/02/03 15:28:01;;;;;;;2.40;1.93;;;13.00;79.10;;;;;;5113449;28;20712;-43
2022/02/03 15:30:26;;;;;;;2.30;2.10;;;12.90;78.60;;;;;;5115822;28;20210;-42
2022/02/03 15:32:52;;;;;;;2.37;2.17;;;12.90;79.00;;;;;;5115631;28;20396;-45
2022/02/03 15:35:27;;;;;;;3.30;2.07;;;12.80;79.30;;;;;;5116911;28;20696;-43
2022/02/03 15:37:53;;;;;;;2.70;2.27;;;12.80;79.70;;;;;;5114974;28;20427;-43
2022/02/03 15:40:23;;;;;;;2.00;1.80;;;12.70;79.80;;;;;;5097793;28;20473;-44
2022/02/03 15:42:55;;;;;;;3.27;2.90;;;12.60;80.10;;;;;;5115505;28;20496;-43
2022/02/03 15:45:21;;;;;;;2.60;2.40;;;12.50;80.40;;;;;;5117943;28;20412;-44
2022/02/03 15:47:53;;;;;;;2.97;2.20;;;12.50;80.70;;;;;;5115149;28;20504;-43
2022/02/03 16:17:31;;;;;;;3.33;3.03;;;11.40;84.70;;;;;;5115036;28;20423;-40
2022/02/03 16:20:06;;;;;;;3.67;2.90;;;11.30;85.30;;;;;;5110952;28;20737;-41
2022/02/03 16:42:34;;;;;;;4.43;4.03;;;10.70;89.80;;;;;;5091828;28;20695;-41
2022/02/03 16:52:50;;;;;;;4.07;3.70;;;10.50;90.60;;;;;;5092125;28;20426;-42
2022/02/03 16:55:20;;;;;;;4.67;3.63;;;10.50;90.90;;;;;;5092865;28;20439;-44
2022/02/03 16:57:51;;;;;;;3.90;3.60;;;10.40;90.90;;;;;;5093724;28;20434;-38
2022/02/03 17:00:17;;;;;;;4.60;4.20;;;10.40;91.00;;;;;;5090724;28;20827;-38
2022/02/03 17:02:43;;;;;;;4.20;3.80;;;10.40;91.10;;;;;;5093618;28;20513;-40
2022/02/03 17:05:10;;;;;;;4.93;4.53;;;10.40;91.10;;;;;;5073574;28;20744;-45
2022/02/03 17:07:36;;;;;;;4.90;4.40;;;10.30;91.10;;;;;;5093017;28;20774;-45
2022/02/03 17:10:03;;;;;;;4.53;4.17;;;10.30;91.20;;;;;;5091364;28;20502;-46
2022/02/03 17:12:29;;;;;;;4.57;4.17;;;10.20;91.30;;;;;;5095371;28;20490;-45
2022/02/03 17:14:55;;;;;;;4.77;4.37;;;10.20;91.40;;;;;;5093863;28;20425;-46
2022/02/03 17:17:21;;;;;;;6.20;4.17;;;10.10;91.50;;;;;;5095079;28;20180;-46
2022/02/03 17:19:47;;;;;;;4.43;4.00;;;10.10;91.60;;;;;;5092550;28;20275;-47
2022/02/03 17:22:15;;;;;;;5.57;4.70;;;10.00;91.60;;;;;;5093840;28;20870;-47
2022/02/03 17:24:48;;;;;;;5.67;5.07;;;10.00;91.80;;;;;;5095682;28;20874;-47
2022/02/03 17:30:09;;;;;;;5.30;4.80;;;9.90;92.70;;;;;;5110508;28;20831;-47
2022/02/03 18:02:53;;;;;;;4.70;4.30;;;9.60;93.50;;;;;;5111652;28;20413;-46
2022/02/03 18:03:26;;;;;;;5.40;4.97;;;9.50;93.80;;;;;;5116546;28;20447;-46
2022/02/03 18:29:56;;;;;;;6.87;6.17;;;12.00;92.00;;;;;;5116385;28;21009;-47
2022/02/03 18:51:02;;;;;;;8.20;7.40;;;10.10;93.20;;;;;;5099998;28;20425;-46
2022/02/03 18:53:34;;;;;;;8.00;7.23;;;9.90;93.90;;;;;;5119312;28;20418;-47
2022/02/03 18:56:10;;;;;;;10.80;9.83;;;9.90;94.10;;;;;;5117798;28;20695;-46
2022/02/03 18:58:47;;;;;;;8.73;7.87;;;9.80;94.20;;;;;;5117799;28;20802;-46
2022/02/03 20:10:34;;;;;;;11.83;10.63;;;8.60;95.40;;;;;;5117420;28;20458;-46
2022/02/03 20:12:59;;;;;;;12.13;10.37;;;8.50;95.50;;;;;;5115776;28;20192;-46
2022/02/03 20:15:25;;;;;;;10.60;9.60;;;8.50;95.50;;;;;;5116679;28;20830;-46
2022/02/03 20:17:54;;;;;;;10.97;9.87;;;8.50;95.70;;;;;;5096314;28;20179;-46
2022/02/03 20:20:20;;;;;;;13.20;11.80;;;8.40;95.70;;;;;;5115461;28;20418;-46
2022/02/03 20:22:46;;;;;;;10.37;9.37;;;8.40;95.70;;;;;;5114152;28;20431;-46
2022/02/03 20:25:12;;;;;;;11.97;10.80;;;8.40;96.00;;;;;;5117928;28;20476;-46
2022/02/03 20:27:38;;;;;;;11.33;10.17;;;8.50;96.30;;;;;;5116657;28;20421;-46
2022/02/03 20:30:06;;;;;;;11.20;10.10;;;8.50;96.30;;;;;;5117128;28;20518;-46
2022/02/03 20:32:31;;;;;;;10.07;9.17;;;8.50;96.20;;;;;;5097854;28;20452;-46
2022/02/03 20:34:57;;;;;;;10.00;9.00;;;8.50;96.10;;;;;;5116751;28;20418;-47
2022/02/03 20:37:23;;;;;;;10.37;9.37;;;8.40;96.10;;;;;;5115496;28;20279;-47
2022/02/03 20:39:49;;;;;;;10.63;9.53;;;8.40;96.10;;;;;;5116271;28;20429;-47
2022/02/03 20:42:16;;;;;;;9.43;8.53;;;8.40;96.10;;;;;;5116457;28;20419;-47
2022/02/03 20:44:46;;;;;;;9.70;8.80;;;8.30;96.10;;;;;;5117787;28;20226;-47
2022/02/03 20:47:12;;;;;;;10.10;7.60;;;8.30;96.10;;;;;;5117915;28;20457;-47
2022/02/03 20:49:38;;;;;;;8.43;7.63;;;8.40;97.30;;;;;;5116220;28;20485;-47
2022/02/03 20:52:05;;;;;;;8.73;7.70;;;8.50;97.30;;;;;;5117453;28;20814;-47
2022/02/03 20:54:30;;;;;;;11.13;9.40;;;8.50;97.10;;;;;;5098500;28;20421;-46
2022/02/03 20:56:57;;;;;;;10.13;9.13;;;8.50;96.80;;;;;;5120626;28;20742;-46
2022/02/03 20:59:26;;;;;;;12.50;11.30;;;8.50;96.50;;;;;;5123544;28;20489;-46
2022/02/03 21:02:08;;;;;;;21.43;17.40;;;8.50;96.40;;;;;;5124966;28;20695;-47
2022/02/03 21:04:56;;;;;;;26.17;23.33;;;8.40;96.20;;;;;;5124444;28;20444;-46
2022/02/03 21:07:19;;;;;;;24.30;21.60;;;8.40;96.10;;;;;;5124242;28;20501;-47
2022/02/03 21:09:48;;;;;;;25.80;22.53;;;8.30;96.10;;;;;;5122361;28;20472;-46
2022/02/03 21:12:14;;;;;;;27.50;23.90;;;8.30;96.20;;;;;;5117528;28;20254;-47
2022/02/03 21:14:40;;;;;;;29.47;24.27;;;8.20;96.60;;;;;;5112021;28;20445;-47
2022/02/03 21:17:06;;;;;;;30.80;24.00;;;8.10;96.40;;;;;;5088975;28;20541;-46
2022/02/03 21:19:32;;;;;;;26.37;21.97;;;8.10;96.50;;;;;;5099517;28;20533;-46
2022/02/03 21:21:59;;;;;;;26.83;22.30;;;8.00;96.60;;;;;;5104409;28;20749;-37
2022/02/03 21:24:25;;;;;;;26.10;21.77;;;8.00;96.70;;;;;;5103809;28;20461;-38
2022/02/03 21:26:53;;;;;;;22.67;18.77;;;7.90;96.70;;;;;;5112780;28;20456;-39
2022/02/03 21:29:19;;;;;;;22.37;19.10;;;7.90;96.70;;;;;;5094780;28;20507;-39
2022/02/03 21:31:46;;;;;;;22.80;18.20;;;7.90;96.70;;;;;;5104200;28;20422;-42
2022/02/03 21:34:16;;;;;;;19.07;16.90;;;7.90;96.80;;;;;;5091254;28;20421;-37
2022/02/03 21:36:44;;;;;;;19.30;16.17;;;7.90;96.70;;;;;;5103691;28;20694;-39
2022/02/03 21:39:10;;;;;;;15.63;14.00;;;7.90;96.70;;;;;;5103628;28;20518;-37
2022/02/03 21:41:35;;;;;;;16.30;14.03;;;7.80;96.60;;;;;;5101925;28;20521;-39
2022/02/03 21:44:02;;;;;;;14.77;13.37;;;7.80;96.70;;;;;;5101832;28;20213;-39
2022/02/03 21:46:27;;;;;;;15.70;14.10;;;7.80;96.70;;;;;;5066662;28;20183;-38
2022/02/03 21:48:53;;;;;;;15.87;14.37;;;7.80;96.70;;;;;;5067836;28;20480;-38
2022/02/03 21:51:23;;;;;;;17.00;15.33;;;7.70;96.70;;;;;;5084137;28;20502;-39
2022/02/03 21:53:50;;;;;;;15.20;13.70;;;7.80;96.70;;;;;;5102501;28;20176;-39
2022/02/03 21:56:18;;;;;;;15.30;13.80;;;7.80;96.70;;;;;;5068020;28;20435;-39
2022/02/03 21:58:44;;;;;;;14.90;13.50;;;7.80;96.60;;;;;;5101450;28;20446;-39
2022/02/03 22:01:09;;;;;;;13.83;12.50;;;7.80;96.60;;;;;;5103842;28;20797;-38
2022/02/03 22:03:35;;;;;;;13.50;12.17;;;7.70;96.60;;;;;;5103318;28;20437;-38
2022/02/03 22:06:01;;;;;;;13.90;12.50;;;7.70;96.60;;;;;;5103799;28;20187;-37
2022/02/03 22:08:28;;;;;;;15.37;13.87;;;7.70;96.50;;;;;;5100236;28;20183;-38
2022/02/03 22:10:56;;;;;;;14.17;12.87;;;7.70;96.40;;;;;;5099847;28;20535;-38
2022/02/03 22:13:21;;;;;;;13.27;11.87;;;7.70;96.40;;;;;;5102495;28;20433;-38
2022/02/03 22:15:47;;;;;;;14.23;12.83;;;7.70;96.40;;;;;;5107474;28;20490;-42
2022/02/03 22:18:16;;;;;;;14.43;13.03;;;7.70;96.30;;;;;;5119414;28;20515;-37
2022/02/03 22:20:55;;;;;;;15.60;13.90;;;7.70;96.30;;;;;;5120299;28;20184;-37
2022/02/03 22:42:36;;;;;;;13.50;12.10;;;7.50;96.10;;;;;;5100279;28;20426;-46
2022/02/03 22:47:44;;;;;;;14.97;13.43;;;7.50;96.10;;;;;;5099049;28;20415;-45
2022/02/03 22:50:11;;;;;;;13.47;10.87;;;7.50;96.10;;;;;;5082643;28;20466;-46
2022/02/03 22:52:40;;;;;;;13.13;11.83;;;7.50;96.10;;;;;;5099695;28;20410;-46
2022/02/03 22:55:06;;;;;;;12.77;11.47;;;7.50;96.00;;;;;;5098334;28;20496;-46
2022/02/03 22:57:32;;;;;;;13.93;11.20;;;7.50;96.00;;;;;;5099250;28;20426;-47
2022/02/03 23:00:14;;;;;;;13.43;11.80;;;7.50;96.00;;;;;;5099349;28;20430;-46
2022/02/03 23:02:42;;;;;;;11.70;10.07;;;7.40;95.90;;;;;;5097483;28;20180;-47
2022/02/03 23:05:09;;;;;;;12.77;11.50;;;7.40;95.90;;;;;;5105241;28;20430;-47
2022/02/03 23:07:39;;;;;;;15.37;13.80;;;7.40;95.90;;;;;;5117823;28;20514;-46
2022/02/03 23:15:42;;;;;;;16.40;14.47;;;7.30;96.40;;;;;;5115482;28;20414;-47
2022/02/03 23:18:49;;;;;;;17.10;14.83;;;7.30;96.50;;;;;;5112565;28;20419;-47
2022/02/03 23:23:38;;;;;;;5.00;4.27;;;7.60;99.90;;;;;;5113580;28;20454;-47
2022/02/03 23:26:06;;;;;;;6.00;5.20;;;8.40;99.90;;;;;;5118934;28;20424;-46
2022/02/03 23:28:33;;;;;;;7.57;5.90;;;9.10;99.90;;;;;;5115683;28;20186;-46
2022/02/03 23:30:59;;;;;;;6.80;5.20;;;9.80;99.90;;;;;;5119010;28;20421;-46
2022/02/03 23:33:26;;;;;;;8.07;5.90;;;10.50;99.90;;;;;;5117357;28;20415;-46
2022/02/03 23:35:51;;;;;;;8.53;6.40;;;11.00;99.90;;;;;;5117941;28;20178;-46
2022/02/03 23:39:00;;;;;;;11.13;7.00;;;11.50;99.90;;;;;;5118153;28;20422;-46
